sensor_id;sensor_type;location;lat;lon;timestamp;temperature;humidity
10294;DHT22;5192;50.328;7.610;2023-05-07T00:02:27;12.90;99.10
10294;DHT22;5192;50.328;7.610;2023-05-07T00:04:53;12.80;98.80
10294;DHT22;5192;50.328;7.610;2023-05-07T00:07:21;12.80;98.60
10294;DHT22;5192;50.328;7.610;2023-05-07T00:09:49;12.80;98.60
10294;DHT22;5192;50.328;7.610;2023-05-07T00:12:21;12.80;98.60
10294;DHT22;5192;50.328;7.610;2023-05-07T00:14:47;12.80;98.60
10294;DHT22;5192;50.328;7.610;2023-05-07T00:17:14;12.80;98.60
10294;DHT22;5192;50.328;7.610;2023-05-07T00:19:42;12.90;98.70
10294;DHT22;5192;50.328;7.610;2023-05-07T00:22:08;12.80;98.60
10294;DHT22;5192;50.328;7.610;2023-05-07T00:24:34;12.80;98.70
10294;DHT22;5192;50.328;7.610;2023-05-07T00:27:03;12.80;98.70
10294;DHT22;5192;50.328;7.610;2023-05-07T00:29:30;12.80;98.80
10294;DHT22;5192;50.328;7.610;2023-05-07T00:31:55;12.80;98.80
10294;DHT22;5192;50.328;7.610;2023-05-07T00:34:24;12.80;98.80
10294;DHT22;5192;50.328;7.610;2023-05-07T00:36:52;12.80;98.80
10294;DHT22;5192;50.328;7.610;2023-05-07T00:39:21;12.80;98.80
10294;DHT22;5192;50.328;7.610;2023-05-07T00:41:48;12.80;98.90
10294;DHT22;5192;50.328;7.610;2023-05-07T00:44:15;12.80;98.90
10294;DHT22;5192;50.328;7.610;2023-05-07T00:46:43;12.80;98.90
10294;DHT22;5192;50.328;7.610;2023-05-07T00:49:11;12.80;98.90
10294;DHT22;5192;50.328;7.610;2023-05-07T00:51:39;12.80;98.80
10294;DHT22;5192;50.328;7.610;2023-05-07T00:54:05;12.80;98.70
10294;DHT22;5192;50.328;7.610;2023-05-07T00:56:31;12.80;98.80
10294;DHT22;5192;50.328;7.610;2023-05-07T00:58:59;12.90;98.90
10294;DHT22;5192;50.328;7.610;2023-05-07T01:01:37;12.80;98.80
10294;DHT22;5192;50.328;7.610;2023-05-07T01:04:05;12.90;98.90
10294;DHT22;5192;50.328;7.610;2023-05-07T01:06:32;12.90;99.00
10294;DHT22;5192;50.328;7.610;2023-05-07T01:08:59;12.80;98.90
10294;DHT22;5192;50.328;7.610;2023-05-07T01:11:27;12.90;99.00
10294;DHT22;5192;50.328;7.610;2023-05-07T01:13:55;12.90;99.10
10294;DHT22;5192;50.328;7.610;2023-05-07T01:16:22;12.90;99.20
10294;DHT22;5192;50.328;7.610;2023-05-07T01:18:50;12.90;99.20
10294;DHT22;5192;50.328;7.610;2023-05-07T01:21:17;12.90;99.30
10294;DHT22;5192;50.328;7.610;2023-05-07T01:23:44;12.80;99.30
10294;DHT22;5192;50.328;7.610;2023-05-07T01:26:12;12.80;99.40
10294;DHT22;5192;50.328;7.610;2023-05-07T01:28:41;12.80;99.30
10294;DHT22;5192;50.328;7.610;2023-05-07T01:31:09;12.80;99.30
10294;DHT22;5192;50.328;7.610;2023-05-07T01:33:39;12.80;99.20
10294;DHT22;5192;50.328;7.610;2023-05-07T01:36:11;12.90;99.40
10294;DHT22;5192;50.328;7.610;2023-05-07T01:38:38;12.90;99.40
10294;DHT22;5192;50.328;7.610;2023-05-07T01:41:04;12.80;99.30
10294;DHT22;5192;50.328;7.610;2023-05-07T01:43:30;12.80;99.30
10294;DHT22;5192;50.328;7.610;2023-05-07T01:45:58;12.80;99.30
10294;DHT22;5192;50.328;7.610;2023-05-07T01:48:27;12.80;99.50
10294;DHT22;5192;50.328;7.610;2023-05-07T01:50:57;12.80;99.30
10294;DHT22;5192;50.328;7.610;2023-05-07T01:53:27;12.80;99.30
10294;DHT22;5192;50.328;7.610;2023-05-07T01:55:54;12.70;99.30
10294;DHT22;5192;50.328;7.610;2023-05-07T01:58:21;12.70;99.20
10294;DHT22;5192;50.328;7.610;2023-05-07T02:00:49;12.70;99.00
10294;DHT22;5192;50.328;7.610;2023-05-07T02:03:16;12.70;98.90
10294;DHT22;5192;50.328;7.610;2023-05-07T02:05:44;12.70;98.80
10294;DHT22;5192;50.328;7.610;2023-05-07T02:08:12;12.80;98.80
10294;DHT22;5192;50.328;7.610;2023-05-07T02:10:38;12.80;98.80
10294;DHT22;5192;50.328;7.610;2023-05-07T02:13:04;12.80;99.40
10294;DHT22;5192;50.328;7.610;2023-05-07T02:15:31;12.80;98.90
10294;DHT22;5192;50.328;7.610;2023-05-07T02:18:07;12.80;98.90
10294;DHT22;5192;50.328;7.610;2023-05-07T02:20:35;12.80;99.00
10294;DHT22;5192;50.328;7.610;2023-05-07T02:23:02;12.80;99.00
10294;DHT22;5192;50.328;7.610;2023-05-07T02:25:28;12.70;99.00
10294;DHT22;5192;50.328;7.610;2023-05-07T02:27:55;12.70;98.90
10294;DHT22;5192;50.328;7.610;2023-05-07T02:30:22;12.70;98.90
10294;DHT22;5192;50.328;7.610;2023-05-07T02:32:50;12.80;99.00
10294;DHT22;5192;50.328;7.610;2023-05-07T02:35:17;12.70;99.00
10294;DHT22;5192;50.328;7.610;2023-05-07T02:37:43;12.80;99.00
10294;DHT22;5192;50.328;7.610;2023-05-07T02:40:11;12.90;99.10
10294;DHT22;5192;50.328;7.610;2023-05-07T02:42:39;12.70;99.00
10294;DHT22;5192;50.328;7.610;2023-05-07T02:45:06;12.70;99.00
10294;DHT22;5192;50.328;7.610;2023-05-07T02:47:33;12.70;98.90
10294;DHT22;5192;50.328;7.610;2023-05-07T02:49:58;12.70;98.90
10294;DHT22;5192;50.328;7.610;2023-05-07T02:52:26;12.70;98.90
10294;DHT22;5192;50.328;7.610;2023-05-07T02:54:53;12.70;98.90
10294;DHT22;5192;50.328;7.610;2023-05-07T02:57:20;12.70;99.00
10294;DHT22;5192;50.328;7.610;2023-05-07T02:59:47;12.60;98.80
10294;DHT22;5192;50.328;7.610;2023-05-07T03:02:13;12.60;98.80
10294;DHT22;5192;50.328;7.610;2023-05-07T03:04:39;12.60;98.80
10294;DHT22;5192;50.328;7.610;2023-05-07T03:07:07;12.70;99.00
10294;DHT22;5192;50.328;7.610;2023-05-07T03:09:35;12.50;98.80
10294;DHT22;5192;50.328;7.610;2023-05-07T03:12:02;12.50;98.80
10294;DHT22;5192;50.328;7.610;2023-05-07T03:14:29;12.50;98.70
10294;DHT22;5192;50.328;7.610;2023-05-07T03:16:56;12.40;98.60
10294;DHT22;5192;50.328;7.610;2023-05-07T03:19:24;12.40;98.50
10294;DHT22;5192;50.328;7.610;2023-05-07T03:21:52;12.40;98.50
10294;DHT22;5192;50.328;7.610;2023-05-07T03:24:18;12.30;98.40
10294;DHT22;5192;50.328;7.610;2023-05-07T03:26:45;12.30;98.40
10294;DHT22;5192;50.328;7.610;2023-05-07T03:29:12;12.30;98.30
10294;DHT22;5192;50.328;7.610;2023-05-07T03:31:38;12.20;98.20
10294;DHT22;5192;50.328;7.610;2023-05-07T03:34:04;12.30;98.20
10294;DHT22;5192;50.328;7.610;2023-05-07T03:36:31;12.20;98.10
10294;DHT22;5192;50.328;7.610;2023-05-07T03:38:58;12.10;98.00
10294;DHT22;5192;50.328;7.610;2023-05-07T03:41:25;12.20;97.90
10294;DHT22;5192;50.328;7.610;2023-05-07T03:43:52;12.10;97.80
10294;DHT22;5192;50.328;7.610;2023-05-07T03:46:19;12.10;97.70
10294;DHT22;5192;50.328;7.610;2023-05-07T03:48:46;12.10;97.60
10294;DHT22;5192;50.328;7.610;2023-05-07T03:51:13;12.10;98.10
10294;DHT22;5192;50.328;7.610;2023-05-07T03:53:40;12.10;97.30
10294;DHT22;5192;50.328;7.610;2023-05-07T03:56:08;12.10;97.30
10294;DHT22;5192;50.328;7.610;2023-05-07T03:58:37;12.20;97.30
10294;DHT22;5192;50.328;7.610;2023-05-07T04:01:04;12.20;97.20
10294;DHT22;5192;50.328;7.610;2023-05-07T04:03:32;12.20;97.10
10294;DHT22;5192;50.328;7.610;2023-05-07T04:05:59;12.20;97.00
10294;DHT22;5192;50.328;7.610;2023-05-07T04:08:27;12.20;97.00
10294;DHT22;5192;50.328;7.610;2023-05-07T04:11:00;12.20;97.00
10294;DHT22;5192;50.328;7.610;2023-05-07T04:13:28;12.30;97.10
10294;DHT22;5192;50.328;7.610;2023-05-07T04:15:55;12.20;96.90
10294;DHT22;5192;50.328;7.610;2023-05-07T04:18:23;12.20;96.90
10294;DHT22;5192;50.328;7.610;2023-05-07T04:20:51;12.20;96.90
10294;DHT22;5192;50.328;7.610;2023-05-07T04:23:19;12.30;97.00
10294;DHT22;5192;50.328;7.610;2023-05-07T04:25:46;12.30;97.10
10294;DHT22;5192;50.328;7.610;2023-05-07T04:28:14;12.30;97.20
10294;DHT22;5192;50.328;7.610;2023-05-07T04:30:43;12.30;97.20
10294;DHT22;5192;50.328;7.610;2023-05-07T04:33:10;12.30;97.30
10294;DHT22;5192;50.328;7.610;2023-05-07T04:35:37;12.30;97.30
10294;DHT22;5192;50.328;7.610;2023-05-07T04:38:05;12.50;97.30
10294;DHT22;5192;50.328;7.610;2023-05-07T04:40:31;12.40;97.30
10294;DHT22;5192;50.328;7.610;2023-05-07T04:42:58;12.40;97.20
10294;DHT22;5192;50.328;7.610;2023-05-07T04:45:24;12.40;97.20
10294;DHT22;5192;50.328;7.610;2023-05-07T04:47:52;12.40;97.10
10294;DHT22;5192;50.328;7.610;2023-05-07T04:50:18;12.40;97.10
10294;DHT22;5192;50.328;7.610;2023-05-07T04:52:46;12.40;97.10
10294;DHT22;5192;50.328;7.610;2023-05-07T04:55:13;12.50;97.10
10294;DHT22;5192;50.328;7.610;2023-05-07T04:57:39;12.60;97.10
10294;DHT22;5192;50.328;7.610;2023-05-07T05:00:08;12.60;97.20
10294;DHT22;5192;50.328;7.610;2023-05-07T05:02:41;12.60;97.30
10294;DHT22;5192;50.328;7.610;2023-05-07T05:05:07;12.70;97.60
10294;DHT22;5192;50.328;7.610;2023-05-07T05:07:33;12.70;97.70
10294;DHT22;5192;50.328;7.610;2023-05-07T05:10:01;12.70;97.90
10294;DHT22;5192;50.328;7.610;2023-05-07T05:12:29;12.80;98.10
10294;DHT22;5192;50.328;7.610;2023-05-07T05:14:57;12.90;98.50
10294;DHT22;5192;50.328;7.610;2023-05-07T05:17:24;12.80;98.50
10294;DHT22;5192;50.328;7.610;2023-05-07T05:19:50;12.80;98.80
10294;DHT22;5192;50.328;7.610;2023-05-07T05:22:16;12.80;99.00
10294;DHT22;5192;50.328;7.610;2023-05-07T05:24:43;12.70;99.10
10294;DHT22;5192;50.328;7.610;2023-05-07T05:27:10;12.70;99.10
10294;DHT22;5192;50.328;7.610;2023-05-07T05:29:38;12.70;99.10
10294;DHT22;5192;50.328;7.610;2023-05-07T05:32:05;12.70;99.10
10294;DHT22;5192;50.328;7.610;2023-05-07T05:34:32;12.70;99.10
10294;DHT22;5192;50.328;7.610;2023-05-07T05:37:02;12.70;99.10
10294;DHT22;5192;50.328;7.610;2023-05-07T05:39:29;12.80;99.10
10294;DHT22;5192;50.328;7.610;2023-05-07T05:41:56;12.90;99.30
10294;DHT22;5192;50.328;7.610;2023-05-07T05:44:22;13.00;99.40
10294;DHT22;5192;50.328;7.610;2023-05-07T05:46:50;13.00;99.40
10294;DHT22;5192;50.328;7.610;2023-05-07T05:49:18;13.10;99.90
10294;DHT22;5192;50.328;7.610;2023-05-07T05:51:48;13.10;99.80
10294;DHT22;5192;50.328;7.610;2023-05-07T05:54:13;13.20;99.90
10294;DHT22;5192;50.328;7.610;2023-05-07T05:56:41;13.30;99.90
10294;DHT22;5192;50.328;7.610;2023-05-07T05:59:09;13.30;99.90
10294;DHT22;5192;50.328;7.610;2023-05-07T06:01:35;13.40;99.90
10294;DHT22;5192;50.328;7.610;2023-05-07T06:04:03;13.40;99.90
10294;DHT22;5192;50.328;7.610;2023-05-07T06:06:30;13.50;99.90
10294;DHT22;5192;50.328;7.610;2023-05-07T06:08:57;13.60;99.90
10294;DHT22;5192;50.328;7.610;2023-05-07T06:11:23;13.80;99.90
10294;DHT22;5192;50.328;7.610;2023-05-07T06:13:49;13.70;99.90
10294;DHT22;5192;50.328;7.610;2023-05-07T06:16:15;13.80;99.90
10294;DHT22;5192;50.328;7.610;2023-05-07T06:18:45;13.90;99.90
10294;DHT22;5192;50.328;7.610;2023-05-07T06:21:13;13.90;99.90
10294;DHT22;5192;50.328;7.610;2023-05-07T06:23:41;13.90;99.90
10294;DHT22;5192;50.328;7.610;2023-05-07T06:26:08;14.00;99.90
10294;DHT22;5192;50.328;7.610;2023-05-07T06:28:37;14.20;99.90
10294;DHT22;5192;50.328;7.610;2023-05-07T06:31:19;14.30;99.90
10294;DHT22;5192;50.328;7.610;2023-05-07T06:33:50;14.30;99.90
10294;DHT22;5192;50.328;7.610;2023-05-07T06:36:17;14.50;99.90
10294;DHT22;5192;50.328;7.610;2023-05-07T06:38:45;14.60;98.20
10294;DHT22;5192;50.328;7.610;2023-05-07T06:41:12;14.80;97.80
10294;DHT22;5192;50.328;7.610;2023-05-07T06:43:42;14.90;96.70
10294;DHT22;5192;50.328;7.610;2023-05-07T06:46:10;15.00;95.30
10294;DHT22;5192;50.328;7.610;2023-05-07T06:48:37;15.20;94.90
10294;DHT22;5192;50.328;7.610;2023-05-07T06:51:04;15.30;93.70
10294;DHT22;5192;50.328;7.610;2023-05-07T06:53:34;15.40;91.70
10294;DHT22;5192;50.328;7.610;2023-05-07T06:56:02;15.60;92.70
10294;DHT22;5192;50.328;7.610;2023-05-07T06:58:29;15.80;90.10
10294;DHT22;5192;50.328;7.610;2023-05-07T07:00:57;15.80;76.10
10294;DHT22;5192;50.328;7.610;2023-05-07T07:03:24;15.90;71.20
10294;DHT22;5192;50.328;7.610;2023-05-07T07:05:53;16.10;69.80
10294;DHT22;5192;50.328;7.610;2023-05-07T07:08:21;16.30;66.80
10294;DHT22;5192;50.328;7.610;2023-05-07T07:10:48;16.40;67.50
10294;DHT22;5192;50.328;7.610;2023-05-07T07:13:15;16.60;70.40
10294;DHT22;5192;50.328;7.610;2023-05-07T07:15:42;16.60;60.00
10294;DHT22;5192;50.328;7.610;2023-05-07T07:18:09;16.70;63.80
10294;DHT22;5192;50.328;7.610;2023-05-07T07:20:36;16.90;66.60
10294;DHT22;5192;50.328;7.610;2023-05-07T07:23:02;17.10;67.70
10294;DHT22;5192;50.328;7.610;2023-05-07T07:25:34;17.30;66.20
10294;DHT22;5192;50.328;7.610;2023-05-07T07:28:01;17.40;66.30
10294;DHT22;5192;50.328;7.610;2023-05-07T07:30:29;17.30;60.90
10294;DHT22;5192;50.328;7.610;2023-05-07T07:32:57;17.50;60.30
10294;DHT22;5192;50.328;7.610;2023-05-07T07:35:36;17.50;50.00
10294;DHT22;5192;50.328;7.610;2023-05-07T07:38:03;17.70;56.40
10294;DHT22;5192;50.328;7.610;2023-05-07T07:40:28;17.70;54.30
10294;DHT22;5192;50.328;7.610;2023-05-07T07:42:59;17.70;49.70
10294;DHT22;5192;50.328;7.610;2023-05-07T07:45:27;17.80;48.40
10294;DHT22;5192;50.328;7.610;2023-05-07T07:47:57;17.80;46.10
10294;DHT22;5192;50.328;7.610;2023-05-07T07:50:25;17.90;41.60
10294;DHT22;5192;50.328;7.610;2023-05-07T07:52:50;17.80;39.60
10294;DHT22;5192;50.328;7.610;2023-05-07T07:55:22;17.80;33.40
10294;DHT22;5192;50.328;7.610;2023-05-07T07:57:54;17.90;34.60
10294;DHT22;5192;50.328;7.610;2023-05-07T08:00:21;18.00;38.20
10294;DHT22;5192;50.328;7.610;2023-05-07T08:02:49;18.20;38.80
10294;DHT22;5192;50.328;7.610;2023-05-07T08:05:16;18.30;30.40
10294;DHT22;5192;50.328;7.610;2023-05-07T08:07:43;18.40;34.00
10294;DHT22;5192;50.328;7.610;2023-05-07T08:10:09;18.30;32.40
10294;DHT22;5192;50.328;7.610;2023-05-07T08:12:36;18.20;31.60
10294;DHT22;5192;50.328;7.610;2023-05-07T08:15:05;18.20;28.10
10294;DHT22;5192;50.328;7.610;2023-05-07T08:17:32;18.20;27.50
10294;DHT22;5192;50.328;7.610;2023-05-07T08:19:58;18.30;30.00
10294;DHT22;5192;50.328;7.610;2023-05-07T08:22:26;18.30;25.60
10294;DHT22;5192;50.328;7.610;2023-05-07T08:24:52;18.50;29.70
10294;DHT22;5192;50.328;7.610;2023-05-07T08:27:20;18.60;34.70
10294;DHT22;5192;50.328;7.610;2023-05-07T08:29:48;18.70;29.80
10294;DHT22;5192;50.328;7.610;2023-05-07T08:32:16;18.80;28.10
10294;DHT22;5192;50.328;7.610;2023-05-07T08:34:44;18.80;28.90
10294;DHT22;5192;50.328;7.610;2023-05-07T08:37:11;18.80;23.80
10294;DHT22;5192;50.328;7.610;2023-05-07T08:39:38;18.90;20.80
10294;DHT22;5192;50.328;7.610;2023-05-07T08:42:05;19.00;24.80
10294;DHT22;5192;50.328;7.610;2023-05-07T08:44:42;19.00;22.10
10294;DHT22;5192;50.328;7.610;2023-05-07T08:47:16;18.90;21.30
10294;DHT22;5192;50.328;7.610;2023-05-07T08:49:46;18.90;20.50
10294;DHT22;5192;50.328;7.610;2023-05-07T08:52:14;19.00;25.40
10294;DHT22;5192;50.328;7.610;2023-05-07T08:54:40;19.20;28.30
10294;DHT22;5192;50.328;7.610;2023-05-07T08:57:08;19.30;26.10
10294;DHT22;5192;50.328;7.610;2023-05-07T08:59:35;19.40;15.90
10294;DHT22;5192;50.328;7.610;2023-05-07T09:02:05;19.40;12.10
10294;DHT22;5192;50.328;7.610;2023-05-07T09:04:33;19.50;19.80
10294;DHT22;5192;50.328;7.610;2023-05-07T09:07:03;19.50;19.00
10294;DHT22;5192;50.328;7.610;2023-05-07T09:09:32;19.40;22.60
10294;DHT22;5192;50.328;7.610;2023-05-07T09:11:59;19.50;25.10
10294;DHT22;5192;50.328;7.610;2023-05-07T09:14:27;19.60;22.00
10294;DHT22;5192;50.328;7.610;2023-05-07T09:16:54;19.70;21.40
10294;DHT22;5192;50.328;7.610;2023-05-07T09:19:26;19.80;17.70
10294;DHT22;5192;50.328;7.610;2023-05-07T09:22:05;19.80;7.40
10294;DHT22;5192;50.328;7.610;2023-05-07T09:24:34;19.80;11.40
10294;DHT22;5192;50.328;7.610;2023-05-07T09:27:02;19.90;12.70
10294;DHT22;5192;50.328;7.610;2023-05-07T09:29:30;19.90;13.70
10294;DHT22;5192;50.328;7.610;2023-05-07T09:32:05;19.90;13.70
10294;DHT22;5192;50.328;7.610;2023-05-07T09:34:32;19.90;18.10
10294;DHT22;5192;50.328;7.610;2023-05-07T09:37:02;19.90;16.80
10294;DHT22;5192;50.328;7.610;2023-05-07T09:39:45;19.90;10.10
10294;DHT22;5192;50.328;7.610;2023-05-07T09:42:14;20.00;9.30
10294;DHT22;5192;50.328;7.610;2023-05-07T09:44:43;20.10;9.70
10294;DHT22;5192;50.328;7.610;2023-05-07T09:47:10;20.00;4.70
10294;DHT22;5192;50.328;7.610;2023-05-07T09:49:39;20.20;7.90
10294;DHT22;5192;50.328;7.610;2023-05-07T09:52:06;20.30;7.40
10294;DHT22;5192;50.328;7.610;2023-05-07T09:54:34;20.40;8.50
10294;DHT22;5192;50.328;7.610;2023-05-07T09:57:09;20.40;1.50
10294;DHT22;5192;50.328;7.610;2023-05-07T09:59:38;20.60;3.40
10294;DHT22;5192;50.328;7.610;2023-05-07T10:02:09;20.70;8.40
10294;DHT22;5192;50.328;7.610;2023-05-07T10:04:37;20.80;10.50
10294;DHT22;5192;50.328;7.610;2023-05-07T10:07:04;20.90;9.30
10294;DHT22;5192;50.328;7.610;2023-05-07T10:09:32;21.10;10.10
10294;DHT22;5192;50.328;7.610;2023-05-07T10:11:58;21.00;1.00
10294;DHT22;5192;50.328;7.610;2023-05-07T10:14:25;21.10;2.30
10294;DHT22;5192;50.328;7.610;2023-05-07T10:16:53;21.10;1.00
10294;DHT22;5192;50.328;7.610;2023-05-07T10:19:22;21.20;4.60
10294;DHT22;5192;50.328;7.610;2023-05-07T10:24:50;21.40;1.00
10294;DHT22;5192;50.328;7.610;2023-05-07T10:27:19;21.40;2.00
10294;DHT22;5192;50.328;7.610;2023-05-07T10:30:21;21.70;1.00
10294;DHT22;5192;50.328;7.610;2023-05-07T10:32:53;21.70;1.00
10294;DHT22;5192;50.328;7.610;2023-05-07T10:35:26;21.90;1.00
10294;DHT22;5192;50.328;7.610;2023-05-07T10:37:53;22.10;1.00
10294;DHT22;5192;50.328;7.610;2023-05-07T10:40:20;22.30;1.00
10294;DHT22;5192;50.328;7.610;2023-05-07T10:43:03;22.60;1.00
10294;DHT22;5192;50.328;7.610;2023-05-07T10:45:33;22.60;1.00
10294;DHT22;5192;50.328;7.610;2023-05-07T10:48:19;22.50;1.00
10294;DHT22;5192;50.328;7.610;2023-05-07T10:50:47;22.50;1.00
10294;DHT22;5192;50.328;7.610;2023-05-07T10:53:31;22.60;1.00
10294;DHT22;5192;50.328;7.610;2023-05-07T10:58:49;22.90;1.00
10294;DHT22;5192;50.328;7.610;2023-05-07T11:01:49;22.80;1.00
10294;DHT22;5192;50.328;7.610;2023-05-07T11:04:18;22.80;1.00
10294;DHT22;5192;50.328;7.610;2023-05-07T11:07:17;23.10;1.00
10294;DHT22;5192;50.328;7.610;2023-05-07T11:10:06;23.40;1.00
10294;DHT22;5192;50.328;7.610;2023-05-07T11:15:13;24.20;1.00
10294;DHT22;5192;50.328;7.610;2023-05-07T11:18:00;24.40;1.00
10294;DHT22;5192;50.328;7.610;2023-05-07T11:20:48;24.50;1.00
10294;DHT22;5192;50.328;7.610;2023-05-07T11:26:10;24.10;1.00
10294;DHT22;5192;50.328;7.610;2023-05-07T11:28:38;24.10;1.00
10294;DHT22;5192;50.328;7.610;2023-05-07T11:31:07;24.00;1.00
10294;DHT22;5192;50.328;7.610;2023-05-07T11:33:34;24.30;1.00
10294;DHT22;5192;50.328;7.610;2023-05-07T11:36:05;24.40;1.00
10294;DHT22;5192;50.328;7.610;2023-05-07T11:38:39;24.50;1.00
10294;DHT22;5192;50.328;7.610;2023-05-07T11:41:07;24.70;1.00
10294;DHT22;5192;50.328;7.610;2023-05-07T11:43:34;24.80;1.00
10294;DHT22;5192;50.328;7.610;2023-05-07T11:46:13;24.80;1.00
10294;DHT22;5192;50.328;7.610;2023-05-07T11:48:41;24.70;1.00
10294;DHT22;5192;50.328;7.610;2023-05-07T11:51:10;24.40;1.00
10294;DHT22;5192;50.328;7.610;2023-05-07T11:53:43;24.30;1.00
10294;DHT22;5192;50.328;7.610;2023-05-07T11:56:12;24.10;1.00
10294;DHT22;5192;50.328;7.610;2023-05-07T11:58:39;24.20;1.00
10294;DHT22;5192;50.328;7.610;2023-05-07T12:01:10;24.30;1.00
10294;DHT22;5192;50.328;7.610;2023-05-07T12:03:37;24.30;1.00
10294;DHT22;5192;50.328;7.610;2023-05-07T12:06:19;24.30;1.00
10294;DHT22;5192;50.328;7.610;2023-05-07T12:08:47;24.50;1.00
10294;DHT22;5192;50.328;7.610;2023-05-07T12:11:22;24.60;1.00
10294;DHT22;5192;50.328;7.610;2023-05-07T12:13:51;24.40;1.00
10294;DHT22;5192;50.328;7.610;2023-05-07T12:16:23;24.30;1.00
10294;DHT22;5192;50.328;7.610;2023-05-07T12:18:50;24.30;1.00
10294;DHT22;5192;50.328;7.610;2023-05-07T12:21:20;24.30;1.00
10294;DHT22;5192;50.328;7.610;2023-05-07T12:23:49;24.30;1.00
10294;DHT22;5192;50.328;7.610;2023-05-07T12:26:19;24.20;1.00
10294;DHT22;5192;50.328;7.610;2023-05-07T12:28:48;24.10;1.00
10294;DHT22;5192;50.328;7.610;2023-05-07T12:31:16;24.10;1.00
10294;DHT22;5192;50.328;7.610;2023-05-07T12:33:42;24.10;1.00
10294;DHT22;5192;50.328;7.610;2023-05-07T12:36:13;24.00;1.00
10294;DHT22;5192;50.328;7.610;2023-05-07T12:38:40;23.90;1.00
10294;DHT22;5192;50.328;7.610;2023-05-07T12:41:12;23.90;1.00
10294;DHT22;5192;50.328;7.610;2023-05-07T12:43:39;24.00;1.00
10294;DHT22;5192;50.328;7.610;2023-05-07T12:46:16;24.00;1.00
10294;DHT22;5192;50.328;7.610;2023-05-07T12:48:44;23.90;1.00
10294;DHT22;5192;50.328;7.610;2023-05-07T12:51:17;23.90;1.00
10294;DHT22;5192;50.328;7.610;2023-05-07T12:53:47;23.80;1.00
10294;DHT22;5192;50.328;7.610;2023-05-07T12:56:17;23.80;1.00
10294;DHT22;5192;50.328;7.610;2023-05-07T12:58:44;24.00;1.00
10294;DHT22;5192;50.328;7.610;2023-05-07T13:01:10;24.30;1.00
10294;DHT22;5192;50.328;7.610;2023-05-07T13:03:47;24.60;1.00
10294;DHT22;5192;50.328;7.610;2023-05-07T13:06:25;24.90;1.00
10294;DHT22;5192;50.328;7.610;2023-05-07T13:08:53;25.40;1.00
10294;DHT22;5192;50.328;7.610;2023-05-07T13:11:18;25.60;1.00
10294;DHT22;5192;50.328;7.610;2023-05-07T13:13:45;25.60;1.00
10294;DHT22;5192;50.328;7.610;2023-05-07T13:16:11;25.40;1.00
10294;DHT22;5192;50.328;7.610;2023-05-07T13:18:39;25.50;1.00
10294;DHT22;5192;50.328;7.610;2023-05-07T13:21:08;25.50;1.00
10294;DHT22;5192;50.328;7.610;2023-05-07T13:23:36;25.50;1.00
10294;DHT22;5192;50.328;7.610;2023-05-07T13:26:05;25.50;1.00
10294;DHT22;5192;50.328;7.610;2023-05-07T13:28:31;25.30;1.00
10294;DHT22;5192;50.328;7.610;2023-05-07T13:30:57;25.30;1.00
10294;DHT22;5192;50.328;7.610;2023-05-07T13:33:24;25.10;1.00
10294;DHT22;5192;50.328;7.610;2023-05-07T13:35:51;24.90;1.00
10294;DHT22;5192;50.328;7.610;2023-05-07T13:38:18;24.90;1.00
10294;DHT22;5192;50.328;7.610;2023-05-07T13:40:47;24.60;1.00
10294;DHT22;5192;50.328;7.610;2023-05-07T13:43:14;24.50;1.00
10294;DHT22;5192;50.328;7.610;2023-05-07T13:45:42;24.40;1.00
10294;DHT22;5192;50.328;7.610;2023-05-07T13:48:10;24.40;1.00
10294;DHT22;5192;50.328;7.610;2023-05-07T13:50:36;24.40;1.00
10294;DHT22;5192;50.328;7.610;2023-05-07T13:53:03;24.60;1.00
10294;DHT22;5192;50.328;7.610;2023-05-07T13:55:30;24.60;1.00
10294;DHT22;5192;50.328;7.610;2023-05-07T13:57:58;24.90;1.00
10294;DHT22;5192;50.328;7.610;2023-05-07T14:00:28;25.40;1.00
10294;DHT22;5192;50.328;7.610;2023-05-07T14:02:56;25.90;1.00
10294;DHT22;5192;50.328;7.610;2023-05-07T14:05:22;26.20;1.00
10294;DHT22;5192;50.328;7.610;2023-05-07T14:07:53;26.50;1.00
10294;DHT22;5192;50.328;7.610;2023-05-07T14:10:20;26.20;1.00
10294;DHT22;5192;50.328;7.610;2023-05-07T14:12:48;26.00;1.00
10294;DHT22;5192;50.328;7.610;2023-05-07T14:15:17;25.70;1.00
10294;DHT22;5192;50.328;7.610;2023-05-07T14:17:44;25.50;1.00
10294;DHT22;5192;50.328;7.610;2023-05-07T14:20:11;25.30;1.00
10294;DHT22;5192;50.328;7.610;2023-05-07T14:22:40;25.20;1.00
10294;DHT22;5192;50.328;7.610;2023-05-07T14:25:07;24.90;1.00
10294;DHT22;5192;50.328;7.610;2023-05-07T14:27:38;24.60;1.00
10294;DHT22;5192;50.328;7.610;2023-05-07T14:30:05;24.70;1.00
10294;DHT22;5192;50.328;7.610;2023-05-07T14:32:34;24.40;1.00
10294;DHT22;5192;50.328;7.610;2023-05-07T14:35:00;24.30;1.00
10294;DHT22;5192;50.328;7.610;2023-05-07T14:37:27;24.30;1.00
10294;DHT22;5192;50.328;7.610;2023-05-07T14:39:54;24.20;1.00
10294;DHT22;5192;50.328;7.610;2023-05-07T14:42:21;24.20;1.00
10294;DHT22;5192;50.328;7.610;2023-05-07T14:44:47;24.20;1.00
10294;DHT22;5192;50.328;7.610;2023-05-07T14:47:14;24.10;1.00
10294;DHT22;5192;50.328;7.610;2023-05-07T14:49:42;24.00;1.00
10294;DHT22;5192;50.328;7.610;2023-05-07T14:52:10;24.20;1.00
10294;DHT22;5192;50.328;7.610;2023-05-07T14:54:38;24.70;1.00
10294;DHT22;5192;50.328;7.610;2023-05-07T14:57:06;25.30;1.00
10294;DHT22;5192;50.328;7.610;2023-05-07T14:59:34;25.50;1.00
10294;DHT22;5192;50.328;7.610;2023-05-07T15:02:04;25.40;1.00
10294;DHT22;5192;50.328;7.610;2023-05-07T15:04:31;25.40;1.00
10294;DHT22;5192;50.328;7.610;2023-05-07T15:07:02;25.40;1.00
10294;DHT22;5192;50.328;7.610;2023-05-07T15:09:29;25.30;1.00
10294;DHT22;5192;50.328;7.610;2023-05-07T15:11:56;25.10;1.00
10294;DHT22;5192;50.328;7.610;2023-05-07T15:14:24;25.10;1.00
10294;DHT22;5192;50.328;7.610;2023-05-07T15:16:51;25.00;1.00
10294;DHT22;5192;50.328;7.610;2023-05-07T15:19:19;24.90;1.00
10294;DHT22;5192;50.328;7.610;2023-05-07T15:21:45;24.70;1.00
10294;DHT22;5192;50.328;7.610;2023-05-07T15:24:12;24.60;1.00
10294;DHT22;5192;50.328;7.610;2023-05-07T15:26:40;24.60;1.00
10294;DHT22;5192;50.328;7.610;2023-05-07T15:29:06;24.60;1.00
10294;DHT22;5192;50.328;7.610;2023-05-07T15:31:36;24.70;1.00
10294;DHT22;5192;50.328;7.610;2023-05-07T15:34:05;24.70;1.00
10294;DHT22;5192;50.328;7.610;2023-05-07T15:36:31;24.60;1.00
10294;DHT22;5192;50.328;7.610;2023-05-07T15:38:59;24.40;1.00
10294;DHT22;5192;50.328;7.610;2023-05-07T15:41:26;24.40;1.00
10294;DHT22;5192;50.328;7.610;2023-05-07T15:43:54;24.30;1.00
10294;DHT22;5192;50.328;7.610;2023-05-07T15:46:23;24.10;1.00
10294;DHT22;5192;50.328;7.610;2023-05-07T15:48:53;23.90;1.00
10294;DHT22;5192;50.328;7.610;2023-05-07T15:51:20;23.90;1.00
10294;DHT22;5192;50.328;7.610;2023-05-07T15:53:49;23.80;1.00
10294;DHT22;5192;50.328;7.610;2023-05-07T15:56:17;23.50;1.00
10294;DHT22;5192;50.328;7.610;2023-05-07T15:58:45;23.40;1.00
10294;DHT22;5192;50.328;7.610;2023-05-07T16:01:16;23.40;1.00
10294;DHT22;5192;50.328;7.610;2023-05-07T16:03:42;23.20;1.00
10294;DHT22;5192;50.328;7.610;2023-05-07T16:06:10;23.00;1.00
10294;DHT22;5192;50.328;7.610;2023-05-07T16:08:40;23.00;1.00
10294;DHT22;5192;50.328;7.610;2023-05-07T16:11:08;22.90;1.00
10294;DHT22;5192;50.328;7.610;2023-05-07T16:13:34;22.80;1.00